Time;durP1;ratioP1;P1;durP2;ratioP2;P2;SDS_P1;SDS_P2;PMS_P1;PMS_P2;Temp;Humidity;BMP_temperature;BMP_pressure;BME280_temperature;BME280_humidity;BME280_pressure;Samples;Min_cycle;Max_cycle;Signal;HPM_P1;HPM_P2
2021/09/17 00:02:20;;;;;;;10.20;9.10;;;12.40;99.90;;;;;;5042110;28;20401;-75
2021/09/17 00:04:46;;;;;;;9.97;8.17;;;12.50;99.90;;;;;;5042744;28;20451;-75
2021/09/17 00:07:11;;;;;;;10.30;8.67;;;12.30;99.90;;;;;;5047789;28;20242;-76
2021/09/17 00:09:37;;;;;;;9.10;8.00;;;12.60;99.90;;;;;;5065370;28;20670;-76
2021/09/17 00:12:03;;;;;;;10.10;8.43;;;12.60;99.90;;;;;;5059096;28;20312;-76
2021/09/17 00:14:29;;;;;;;14.00;7.93;;;12.30;99.90;;;;;;5043108;28;21244;-75
2021/09/17 00:16:54;;;;;;;9.33;8.20;;;12.30;99.90;;;;;;5042028;28;20508;-76
2021/09/17 00:19:20;;;;;;;9.80;8.00;;;12.80;99.90;;;;;;5058575;28;20267;-75
2021/09/17 00:21:45;;;;;;;10.63;8.20;;;12.70;99.90;;;;;;5050302;28;20641;-75
2021/09/17 00:24:11;;;;;;;7.70;6.97;;;12.70;99.90;;;;;;5046082;28;20619;-75
2021/09/17 00:26:37;;;;;;;7.70;6.60;;;12.50;99.90;;;;;;5044092;28;20178;-76
2021/09/17 00:29:02;;;;;;;6.83;6.20;;;12.60;99.90;;;;;;5042241;28;20183;-75
2021/09/17 00:31:28;;;;;;;6.73;6.13;;;12.90;99.90;;;;;;5045352;28;20209;-75
2021/09/17 00:33:53;;;;;;;6.30;5.70;;;12.50;99.90;;;;;;5045768;28;20567;-75
2021/09/17 00:36:19;;;;;;;6.80;6.17;;;13.00;99.90;;;;;;5047481;28;20186;-75
2021/09/17 00:38:44;;;;;;;6.80;6.10;;;12.80;99.90;;;;;;5045035;28;20182;-75
2021/09/17 00:41:11;;;;;;;6.87;6.17;;;12.70;99.90;;;;;;5062639;28;20214;-75
2021/09/17 00:43:38;;;;;;;6.70;6.10;;;12.80;99.90;;;;;;5064298;28;20547;-74
2021/09/17 00:46:03;;;;;;;7.07;6.47;;;13.00;99.90;;;;;;5066835;28;20493;-75
2021/09/17 00:48:29;;;;;;;8.40;6.50;;;12.90;99.90;;;;;;5047584;28;20831;-74
2021/09/17 00:50:54;;;;;;;10.23;6.40;;;13.10;99.90;;;;;;5042123;28;20645;-75
2021/09/17 00:53:20;;;;;;;7.10;6.40;;;13.10;99.90;;;;;;5041829;28;20183;-75
2021/09/17 00:55:45;;;;;;;9.53;6.33;;;13.00;99.90;;;;;;5041765;28;20547;-75
2021/09/17 00:58:11;;;;;;;8.00;5.87;;;12.90;99.90;;;;;;5045545;28;20315;-75
2021/09/17 01:00:37;;;;;;;6.73;6.13;;;13.20;99.90;;;;;;5047236;28;20248;-75
2021/09/17 01:03:02;;;;;;;5.83;5.33;;;13.00;99.90;;;;;;5045291;28;20178;-75
2021/09/17 01:05:28;;;;;;;7.03;6.33;;;12.90;99.90;;;;;;5041735;28;20175;-75
2021/09/17 01:07:53;;;;;;;7.60;6.73;;;13.10;99.90;;;;;;5041761;28;20657;-75
2021/09/17 01:10:19;;;;;;;6.33;5.43;;;13.10;99.90;;;;;;5040633;28;20218;-75
2021/09/17 01:12:45;;;;;;;6.80;6.20;;;12.90;99.90;;;;;;5042841;28;20684;-75
2021/09/17 01:15:12;;;;;;;7.78;7.07;;;13.00;99.90;;;;;;5041428;28;20187;-75
2021/09/17 01:17:41;;;;;;;6.60;5.90;;;12.90;99.90;;;;;;5042634;28;20682;-75
2021/09/17 01:20:10;;;;;;;6.25;5.72;;;12.90;99.90;;;;;;5045832;28;20475;-75
2021/09/17 01:22:36;;;;;;;8.88;6.97;;;13.00;99.90;;;;;;5049758;28;20601;-75
2021/09/17 01:25:03;;;;;;;7.70;6.30;;;12.80;99.90;;;;;;5066606;28;20318;-75
2021/09/17 01:27:28;;;;;;;7.73;6.97;;;12.70;99.90;;;;;;5066675;28;20424;-76
2021/09/17 01:29:54;;;;;;;7.53;6.77;;;12.80;99.90;;;;;;5061054;28;20494;-75
2021/09/17 01:32:19;;;;;;;6.87;6.27;;;12.70;99.90;;;;;;5047591;28;20248;-75
2021/09/17 01:34:45;;;;;;;8.03;7.33;;;12.90;99.90;;;;;;5043089;28;20193;-76
2021/09/17 01:37:11;;;;;;;7.40;6.60;;;13.00;99.90;;;;;;5044437;28;20186;-76
2021/09/17 01:39:37;;;;;;;9.13;7.33;;;13.10;99.90;;;;;;5054095;28;20209;-76
2021/09/17 01:42:03;;;;;;;7.37;6.60;;;12.90;99.90;;;;;;5061521;28;20196;-75
2021/09/17 01:44:28;;;;;;;7.93;6.53;;;13.10;99.90;;;;;;5044667;28;20352;-75
2021/09/17 01:46:54;;;;;;;7.67;6.87;;;12.90;99.90;;;;;;5041177;28;20178;-75
2021/09/17 01:49:19;;;;;;;8.30;7.50;;;13.00;99.90;;;;;;5040330;28;20267;-75
2021/09/17 01:51:45;;;;;;;7.10;6.40;;;13.10;99.90;;;;;;5042959;28;20375;-75
2021/09/17 01:54:10;;;;;;;7.80;7.00;;;13.10;99.90;;;;;;5046379;28;20191;-75
2021/09/17 01:56:36;;;;;;;7.50;6.80;;;12.90;99.90;;;;;;5064229;28;20192;-76
2021/09/17 01:59:03;;;;;;;8.37;7.63;;;13.30;99.90;;;;;;5051360;28;20226;-75
2021/09/17 02:01:28;;;;;;;7.35;6.65;;;13.20;99.90;;;;;;5040399;28;20179;-76
2021/09/17 02:03:54;;;;;;;6.93;6.30;;;13.10;99.90;;;;;;5040756;28;20220;-75
2021/09/17 02:06:22;;;;;;;7.50;6.80;;;13.10;99.90;;;;;;5043836;28;20182;-75
2021/09/17 02:08:47;;;;;;;6.85;6.20;;;12.90;99.90;;;;;;5043779;28;20300;-75
2021/09/17 02:11:13;;;;;;;7.13;5.80;;;13.20;99.90;;;;;;5045740;28;20182;-76
2021/09/17 02:13:39;;;;;;;6.73;6.13;;;12.90;99.90;;;;;;5043802;28;20661;-76
2021/09/17 02:16:05;;;;;;;6.80;5.90;;;12.90;99.90;;;;;;5041798;28;20816;-75
2021/09/17 02:18:30;;;;;;;7.70;6.20;;;13.10;99.90;;;;;;5040123;28;20509;-75
2021/09/17 02:20:56;;;;;;;6.20;5.40;;;13.10;99.90;;;;;;5044659;28;20308;-76
2021/09/17 02:23:21;;;;;;;7.07;6.47;;;12.90;99.90;;;;;;5045865;28;20175;-76
2021/09/17 02:25:47;;;;;;;7.40;6.80;;;12.90;99.90;;;;;;5042094;28;20194;-75
2021/09/17 02:28:12;;;;;;;6.27;5.67;;;13.10;99.90;;;;;;5040306;28;20208;-76
2021/09/17 02:30:38;;;;;;;7.07;6.37;;;13.10;99.90;;;;;;5041539;28;20193;-75
2021/09/17 02:33:03;;;;;;;7.93;6.87;;;13.00;99.90;;;;;;5041593;28;20186;-76
2021/09/17 02:35:29;;;;;;;7.00;6.30;;;12.80;99.90;;;;;;5044968;28;20678;-76
2021/09/17 02:37:54;;;;;;;6.97;6.27;;;13.00;99.90;;;;;;5060180;28;20197;-76
2021/09/17 02:40:20;;;;;;;7.53;6.47;;;12.80;99.90;;;;;;5059764;28;20675;-75
2021/09/17 02:42:46;;;;;;;7.60;6.90;;;13.10;99.90;;;;;;5052053;28;20224;-75
2021/09/17 02:45:13;;;;;;;6.87;6.27;;;13.20;99.90;;;;;;5044826;28;20234;-76
2021/09/17 02:47:39;;;;;;;8.80;6.37;;;13.00;99.90;;;;;;5045485;28;20929;-76
2021/09/17 02:50:06;;;;;;;6.93;6.20;;;13.20;99.90;;;;;;5041474;28;21487;-75
2021/09/17 02:52:31;;;;;;;6.78;6.10;;;12.90;99.90;;;;;;5043604;28;20177;-75
2021/09/17 02:54:57;;;;;;;6.47;5.80;;;13.30;99.90;;;;;;5058229;28;20714;-75
2021/09/17 02:57:22;;;;;;;6.70;6.10;;;13.30;99.90;;;;;;5043276;28;20193;-75
2021/09/17 02:59:48;;;;;;;7.17;6.50;;;12.80;99.90;;;;;;5043026;28;20205;-75
2021/09/17 03:02:14;;;;;;;7.03;6.33;;;12.90;99.90;;;;;;5044718;28;20264;-76
2021/09/17 03:04:39;;;;;;;6.90;6.20;;;13.10;99.90;;;;;;5059517;28;20191;-75
2021/09/17 03:07:05;;;;;;;7.83;7.07;;;13.10;99.90;;;;;;5046327;28;20182;-75
2021/09/17 03:09:31;;;;;;;7.57;6.80;;;13.00;99.90;;;;;;5045320;28;20250;-74
2021/09/17 03:11:56;;;;;;;8.10;7.13;;;13.20;99.90;;;;;;5047184;28;20660;-75
2021/09/17 03:14:22;;;;;;;7.40;6.70;;;13.20;99.90;;;;;;5045423;28;20189;-76
2021/09/17 03:16:49;;;;;;;6.80;6.20;;;13.30;99.90;;;;;;5043402;28;20186;-75
2021/09/17 03:19:15;;;;;;;7.50;6.70;;;13.40;99.90;;;;;;5045279;28;20465;-74
2021/09/17 03:21:40;;;;;;;7.20;6.10;;;13.10;99.90;;;;;;5043796;28;20793;-75
2021/09/17 03:24:06;;;;;;;8.23;7.03;;;13.30;99.90;;;;;;5056781;28;20178;-75
2021/09/17 03:26:32;;;;;;;6.30;5.77;;;13.40;99.90;;;;;;5067946;28;20181;-74
2021/09/17 03:28:57;;;;;;;9.07;6.80;;;13.50;99.90;;;;;;5044782;28;20189;-75
2021/09/17 03:31:23;;;;;;;7.80;6.70;;;13.30;99.90;;;;;;5045171;28;20285;-75
2021/09/17 03:33:48;;;;;;;7.63;6.87;;;13.30;99.90;;;;;;5063046;28;20182;-76
2021/09/17 03:36:14;;;;;;;7.87;6.90;;;13.40;99.90;;;;;;5055978;28;20191;-74
2021/09/17 03:38:39;;;;;;;7.30;6.60;;;13.40;99.90;;;;;;5046771;28;20194;-74
2021/09/17 03:41:06;;;;;;;8.20;6.80;;;13.40;99.90;;;;;;5042860;28;20517;-75
2021/09/17 03:43:32;;;;;;;8.33;6.67;;;13.30;99.90;;;;;;5060231;28;20212;-74
2021/09/17 03:45:58;;;;;;;7.80;7.00;;;13.30;99.90;;;;;;5066728;28;20459;-75
2021/09/17 03:48:23;;;;;;;7.50;6.80;;;13.30;99.90;;;;;;5066558;28;20455;-75
2021/09/17 03:50:49;;;;;;;7.37;6.77;;;13.20;99.90;;;;;;5053217;28;20503;-75
2021/09/17 03:53:14;;;;;;;8.07;6.87;;;13.30;99.90;;;;;;5047980;28;20622;-75
2021/09/17 03:55:40;;;;;;;7.53;6.83;;;13.20;99.90;;;;;;5048012;28;20189;-75
2021/09/17 03:58:06;;;;;;;8.70;7.23;;;13.20;99.90;;;;;;5046583;28;20193;-74
2021/09/17 04:00:33;;;;;;;9.30;8.07;;;13.30;99.90;;;;;;5046540;28;20240;-75
2021/09/17 04:02:58;;;;;;;10.30;7.70;;;13.40;99.90;;;;;;5052103;28;20439;-75
2021/09/17 04:05:24;;;;;;;8.53;6.90;;;13.40;99.90;;;;;;5064663;28;20490;-74
2021/09/17 04:07:50;;;;;;;7.17;6.47;;;13.20;99.90;;;;;;5046644;28;20178;-75
2021/09/17 04:10:17;;;;;;;7.77;6.97;;;13.20;99.90;;;;;;5044469;28;20424;-74
2021/09/17 04:12:44;;;;;;;9.07;7.80;;;13.20;99.90;;;;;;5043498;28;20197;-75
2021/09/17 04:15:10;;;;;;;8.53;6.73;;;13.20;99.90;;;;;;5046199;28;20435;-74
2021/09/17 04:17:36;;;;;;;7.47;6.67;;;13.20;99.90;;;;;;5047577;28;20425;-77
2021/09/17 04:20:04;;;;;;;8.03;7.23;;;13.30;99.90;;;;;;5045868;28;20971;-74
2021/09/17 04:22:29;;;;;;;8.40;7.67;;;13.20;99.90;;;;;;5052553;28;20910;-75
2021/09/17 04:24:55;;;;;;;7.67;7.00;;;13.30;99.90;;;;;;5042721;28;20441;-75
2021/09/17 04:27:20;;;;;;;8.97;8.13;;;13.40;99.90;;;;;;5044005;28;20533;-74
2021/09/17 04:29:46;;;;;;;7.40;6.70;;;13.50;99.90;;;;;;5045526;28;20183;-75
2021/09/17 04:32:12;;;;;;;7.67;6.87;;;13.00;99.90;;;;;;5047175;28;20199;-74
2021/09/17 04:34:37;;;;;;;8.20;7.40;;;13.10;99.90;;;;;;5043576;28;20191;-74
2021/09/17 04:37:03;;;;;;;7.50;6.70;;;13.40;99.90;;;;;;5045840;28;20182;-74
2021/09/17 04:39:29;;;;;;;7.37;6.67;;;13.40;99.90;;;;;;5042252;28;20296;-74
2021/09/17 04:41:54;;;;;;;8.00;6.40;;;13.30;99.90;;;;;;5045484;28;20445;-75
2021/09/17 04:44:20;;;;;;;7.37;6.67;;;13.40;99.90;;;;;;5047099;28;20291;-74
2021/09/17 04:46:45;;;;;;;8.90;7.40;;;13.10;99.90;;;;;;5045956;28;20185;-76
2021/09/17 04:49:11;;;;;;;8.10;6.23;;;13.10;99.90;;;;;;5043860;28;20234;-73
2021/09/17 04:51:37;;;;;;;8.37;7.47;;;13.50;99.90;;;;;;5028030;28;20244;-74
2021/09/17 04:54:02;;;;;;;8.63;7.73;;;13.40;99.90;;;;;;5047656;28;20182;-75
2021/09/17 04:56:28;;;;;;;9.50;7.87;;;13.50;99.90;;;;;;5047534;28;20182;-74
2021/09/17 04:58:53;;;;;;;9.10;7.83;;;13.10;99.90;;;;;;5041805;28;20724;-75
2021/09/17 05:01:19;;;;;;;8.57;7.10;;;13.50;99.90;;;;;;5044338;28;20234;-75
2021/09/17 05:03:44;;;;;;;8.60;7.70;;;13.30;99.90;;;;;;5057207;28;20183;-74
2021/09/17 05:06:10;;;;;;;8.30;7.40;;;13.30;99.90;;;;;;5045597;28;20487;-74
2021/09/17 05:08:36;;;;;;;8.20;7.40;;;13.40;99.90;;;;;;5043358;28;20182;-74
2021/09/17 05:11:02;;;;;;;7.70;6.90;;;13.30;99.90;;;;;;5041684;28;20191;-74
2021/09/17 05:13:27;;;;;;;8.63;7.73;;;13.40;99.90;;;;;;5046751;28;20452;-74
2021/09/17 05:15:53;;;;;;;6.60;6.00;;;13.30;99.90;;;;;;5044980;28;20679;-75
2021/09/17 05:18:18;;;;;;;7.73;6.63;;;13.40;99.90;;;;;;5043219;28;20525;-75
2021/09/17 05:20:44;;;;;;;8.53;7.63;;;13.30;99.90;;;;;;5043306;28;20757;-74
2021/09/17 05:23:09;;;;;;;7.50;6.80;;;13.20;99.90;;;;;;5047899;28;20190;-74
2021/09/17 05:25:35;;;;;;;8.00;7.10;;;13.40;99.90;;;;;;5046280;28;20649;-74
2021/09/17 05:28:00;;;;;;;7.60;6.90;;;13.30;99.90;;;;;;5041574;28;20178;-74
2021/09/17 05:30:26;;;;;;;7.60;6.90;;;13.10;99.90;;;;;;5044669;28;20183;-74
2021/09/17 05:32:52;;;;;;;7.73;6.57;;;13.00;99.90;;;;;;5043874;28;20190;-74
2021/09/17 05:35:17;;;;;;;6.37;5.80;;;12.80;99.90;;;;;;5045201;28;20262;-74
2021/09/17 05:37:43;;;;;;;7.57;6.53;;;13.00;99.90;;;;;;5042549;28;20260;-74
2021/09/17 05:40:09;;;;;;;7.93;6.80;;;12.90;99.90;;;;;;5044303;28;20218;-74
2021/09/17 05:42:35;;;;;;;6.60;6.00;;;13.00;99.90;;;;;;5050620;28;20189;-74
2021/09/17 05:45:01;;;;;;;7.65;6.90;;;12.80;99.90;;;;;;5064365;28;20233;-74
2021/09/17 05:47:27;;;;;;;7.70;7.00;;;12.70;99.90;;;;;;5041727;28;20202;-74
2021/09/17 05:49:52;;;;;;;7.93;7.23;;;13.00;99.90;;;;;;5050278;28;20237;-75
2021/09/17 05:52:18;;;;;;;7.90;6.50;;;13.10;99.90;;;;;;5052062;28;20246;-74
2021/09/17 05:54:44;;;;;;;8.33;7.53;;;13.00;99.90;;;;;;5045944;28;20591;-74
2021/09/17 05:57:09;;;;;;;7.80;7.03;;;13.00;99.90;;;;;;5043158;28;20656;-74
2021/09/17 05:59:35;;;;;;;8.57;7.77;;;13.30;99.90;;;;;;5044004;28;20475;-74
2021/09/17 06:02:00;;;;;;;9.60;7.80;;;13.50;99.90;;;;;;5062493;28;20200;-74
2021/09/17 06:04:26;;;;;;;7.97;7.17;;;13.50;99.90;;;;;;5046307;28;20707;-72
2021/09/17 06:06:51;;;;;;;8.27;7.47;;;13.40;99.90;;;;;;5040408;28;20179;-72
2021/09/17 06:09:17;;;;;;;6.73;6.10;;;13.50;99.90;;;;;;5043386;28;20200;-72
2021/09/17 06:11:42;;;;;;;6.97;6.37;;;13.80;99.90;;;;;;5046038;28;20241;-72
2021/09/17 06:14:08;;;;;;;6.73;6.13;;;13.60;99.90;;;;;;5043353;28;20184;-71
2021/09/17 06:16:34;;;;;;;7.07;6.37;;;14.10;99.90;;;;;;5041810;28;20192;-72
2021/09/17 06:19:02;;;;;;;7.90;6.87;;;13.70;99.90;;;;;;5040164;28;20197;-72
2021/09/17 06:21:32;;;;;;;9.50;7.27;;;13.90;99.90;;;;;;5057940;28;20442;-72
2021/09/17 06:23:58;;;;;;;6.03;5.43;;;14.00;99.90;;;;;;5045036;28;21012;-72
2021/09/17 06:26:24;;;;;;;6.13;5.53;;;13.90;99.90;;;;;;5051120;28;20452;-72
2021/09/17 06:28:50;;;;;;;6.17;5.60;;;14.10;99.90;;;;;;5060287;28;20412;-73
2021/09/17 06:31:16;;;;;;;7.07;6.37;;;14.30;99.90;;;;;;5042241;28;20257;-73
2021/09/17 06:33:41;;;;;;;7.90;6.90;;;14.20;99.90;;;;;;5051261;28;20575;-73
2021/09/17 06:36:07;;;;;;;6.80;6.20;;;14.70;99.90;;;;;;5063197;28;20509;-73
2021/09/17 06:38:33;;;;;;;6.30;5.80;;;14.60;99.90;;;;;;5053846;28;20206;-73
2021/09/17 06:40:59;;;;;;;6.50;5.87;;;14.60;99.90;;;;;;5051268;28;20496;-73
2021/09/17 06:43:24;;;;;;;7.43;6.73;;;14.70;99.90;;;;;;5045571;28;20464;-72
2021/09/17 06:45:50;;;;;;;6.30;5.70;;;14.70;99.90;;;;;;5047449;28;20914;-72
2021/09/17 06:48:17;;;;;;;8.70;7.60;;;14.70;99.90;;;;;;5049639;28;20558;-74
2021/09/17 06:50:43;;;;;;;6.90;6.30;;;14.90;99.90;;;;;;5058094;28;20263;-73
2021/09/17 06:53:09;;;;;;;7.93;7.10;;;14.90;99.90;;;;;;5040219;28;20819;-73
2021/09/17 06:55:35;;;;;;;7.13;6.53;;;14.90;99.90;;;;;;5040025;28;20510;-71
2021/09/17 06:58:05;;;;;;;8.07;7.30;;;15.00;99.90;;;;;;5048548;28;20981;-71
2021/09/17 07:00:33;;;;;;;7.33;6.63;;;15.50;99.90;;;;;;5044822;28;20890;-71
2021/09/17 07:02:58;;;;;;;9.47;8.57;;;15.60;99.90;;;;;;5042022;28;21137;-71
2021/09/17 07:05:25;;;;;;;7.80;7.10;;;15.50;99.90;;;;;;5057004;28;20423;-72
2021/09/17 07:07:52;;;;;;;8.00;7.30;;;15.80;99.90;;;;;;5048638;28;20189;-71
2021/09/17 07:10:18;;;;;;;7.90;7.20;;;15.60;99.90;;;;;;5056846;28;20468;-73
2021/09/17 07:12:45;;;;;;;7.33;6.63;;;16.20;99.90;;;;;;5048976;28;20845;-71
2021/09/17 07:15:12;;;;;;;7.20;6.60;;;16.30;99.90;;;;;;5039486;28;20824;-71
2021/09/17 07:17:39;;;;;;;8.57;7.87;;;16.20;99.90;;;;;;5041156;28;20443;-71
2021/09/17 07:20:06;;;;;;;7.50;6.90;;;16.30;99.90;;;;;;5039886;28;20984;-70
2021/09/17 07:22:31;;;;;;;7.27;6.53;;;16.30;99.90;;;;;;5045080;28;20825;-71
2021/09/17 07:24:57;;;;;;;7.60;6.90;;;16.60;99.90;;;;;;5056024;28;20420;-71
2021/09/17 07:27:22;;;;;;;7.73;7.00;;;16.70;99.90;;;;;;5057717;28;20186;-71
2021/09/17 07:29:48;;;;;;;7.20;6.60;;;16.70;99.90;;;;;;5039878;28;20185;-71
2021/09/17 07:32:14;;;;;;;7.70;7.00;;;16.90;99.90;;;;;;5049614;28;20186;-71
2021/09/17 07:34:39;;;;;;;7.20;6.60;;;17.10;99.90;;;;;;5041856;28;20186;-71
2021/09/17 07:37:05;;;;;;;7.67;6.90;;;17.20;99.90;;;;;;5047398;28;21086;-71
2021/09/17 07:39:30;;;;;;;6.77;6.20;;;17.00;99.90;;;;;;5058351;28;20699;-71
2021/09/17 07:41:59;;;;;;;7.27;6.63;;;17.40;99.90;;;;;;5039577;28;20425;-70
2021/09/17 07:44:25;;;;;;;7.37;6.77;;;17.60;99.90;;;;;;5050951;28;20202;-71
2021/09/17 07:46:51;;;;;;;7.37;6.77;;;17.60;99.90;;;;;;5062247;28;20427;-72
2021/09/17 07:49:16;;;;;;;7.30;6.80;;;17.80;99.90;;;;;;5062293;28;20218;-71
2021/09/17 07:51:42;;;;;;;7.10;6.50;;;18.20;99.90;;;;;;5063912;28;20765;-71
2021/09/17 07:54:07;;;;;;;6.73;6.13;;;18.20;99.90;;;;;;5057375;28;20179;-72
2021/09/17 07:56:33;;;;;;;7.57;6.80;;;18.30;99.90;;;;;;5060945;28;20265;-72
2021/09/17 07:58:58;;;;;;;6.90;6.30;;;18.50;99.90;;;;;;5062876;28;20186;-72
2021/09/17 08:01:24;;;;;;;7.10;6.50;;;18.80;99.90;;;;;;5066338;28;20214;-72
2021/09/17 08:03:49;;;;;;;7.50;6.87;;;18.80;99.90;;;;;;5051657;28;20183;-71
2021/09/17 08:06:15;;;;;;;8.30;7.60;;;18.90;99.90;;;;;;5047529;28;20183;-71
2021/09/17 08:08:41;;;;;;;7.37;6.67;;;18.90;99.90;;;;;;5044627;28;20291;-72
2021/09/17 08:11:07;;;;;;;6.80;6.17;;;18.90;99.90;;;;;;5042633;28;20224;-73
2021/09/17 08:13:32;;;;;;;5.87;5.47;;;19.50;99.90;;;;;;5044070;28;20446;-72
2021/09/17 08:15:58;;;;;;;6.40;5.80;;;19.70;99.90;;;;;;5043243;28;20438;-72
2021/09/17 08:18:28;;;;;;;6.80;6.20;;;19.90;99.90;;;;;;5044168;28;20241;-72
2021/09/17 08:20:57;;;;;;;6.80;6.20;;;20.00;99.90;;;;;;5047470;28;20381;-71
2021/09/17 08:23:24;;;;;;;6.63;6.10;;;20.10;99.90;;;;;;5048059;28;20420;-72
2021/09/17 08:25:50;;;;;;;6.40;5.83;;;20.10;99.90;;;;;;5045224;28;20442;-73
2021/09/17 08:28:17;;;;;;;6.90;6.40;;;20.50;99.90;;;;;;5042138;28;20418;-72
2021/09/17 08:30:42;;;;;;;6.20;5.70;;;20.50;99.90;;;;;;5044115;28;20447;-72
2021/09/17 08:33:08;;;;;;;7.27;6.67;;;20.90;99.90;;;;;;5044117;28;20484;-72
2021/09/17 08:35:34;;;;;;;6.87;6.27;;;21.00;99.90;;;;;;5047287;28;20279;-72
2021/09/17 08:38:00;;;;;;;6.67;6.17;;;21.00;99.90;;;;;;5046210;28;20467;-71
2021/09/17 08:40:28;;;;;;;6.50;6.00;;;21.20;99.90;;;;;;5042491;28;20217;-71
2021/09/17 08:43:00;;;;;;;7.07;6.43;;;21.20;99.90;;;;;;5042001;28;20559;-71
2021/09/17 08:45:30;;;;;;;6.90;6.30;;;21.10;99.90;;;;;;5043777;28;20431;-72
2021/09/17 08:47:57;;;;;;;6.87;6.27;;;21.30;99.90;;;;;;5047723;28;20961;-72
2021/09/17 08:50:23;;;;;;;7.17;6.47;;;21.60;99.90;;;;;;5047429;28;20475;-72
2021/09/17 08:52:49;;;;;;;7.20;6.50;;;21.40;99.90;;;;;;5043827;28;20428;-71
2021/09/17 08:55:14;;;;;;;7.40;6.70;;;21.70;99.90;;;;;;5043826;28;20213;-71
2021/09/17 08:57:44;;;;;;;5.70;5.20;;;21.90;99.90;;;;;;5046842;28;20691;-71
2021/09/17 09:00:33;;;;;;;6.30;5.80;;;21.70;99.90;;;;;;5046811;28;20776;-71
2021/09/17 09:02:59;;;;;;;6.23;5.73;;;22.00;98.90;;;;;;5031222;28;20872;-71
2021/09/17 09:05:26;;;;;;;5.63;5.23;;;21.90;98.20;;;;;;5041989;28;20417;-72
2021/09/17 09:07:51;;;;;;;8.00;7.30;;;22.00;97.70;;;;;;5044048;28;20476;-71
2021/09/17 09:10:17;;;;;;;8.53;7.87;;;22.40;98.50;;;;;;5046906;28;20456;-71
2021/09/17 09:12:44;;;;;;;10.03;9.00;;;22.20;96.90;;;;;;5047331;28;20680;-72
2021/09/17 09:15:13;;;;;;;9.53;8.57;;;22.60;97.10;;;;;;5040402;28;20225;-71
2021/09/17 09:17:39;;;;;;;9.37;8.57;;;22.40;91.70;;;;;;5043196;28;20511;-72
2021/09/17 09:20:23;;;;;;;8.17;7.43;;;22.40;91.90;;;;;;5041455;28;20473;-71
2021/09/17 09:23:03;;;;;;;7.10;6.40;;;22.70;91.40;;;;;;5043165;28;20528;-71
2021/09/17 09:25:29;;;;;;;8.33;7.70;;;22.90;91.40;;;;;;5046587;28;20429;-71
2021/09/17 09:28:16;;;;;;;6.80;6.20;;;22.90;81.10;;;;;;5045083;28;20420;-72
2021/09/17 09:30:42;;;;;;;7.23;6.53;;;23.00;70.60;;;;;;5062621;28;20202;-72
2021/09/17 09:33:30;;;;;;;6.50;6.00;;;23.10;75.30;;;;;;5064203;28;20435;-72
2021/09/17 09:35:56;;;;;;;7.50;6.90;;;23.50;77.70;;;;;;5064298;28;20178;-72
2021/09/17 09:38:39;;;;;;;6.60;6.07;;;23.80;76.80;;;;;;5064404;28;20522;-72
2021/09/17 09:41:06;;;;;;;6.47;5.97;;;24.10;73.40;;;;;;5059087;28;20484;-72
2021/09/17 09:43:38;;;;;;;6.60;6.10;;;24.40;75.70;;;;;;5060810;28;20420;-71
2021/09/17 09:46:23;;;;;;;6.80;6.30;;;24.60;74.40;;;;;;5061249;28;20444;-72
2021/09/17 09:49:15;;;;;;;5.73;5.23;;;25.20;71.40;;;;;;5024579;28;20410;-72
2021/09/17 09:51:53;;;;;;;5.23;4.77;;;25.20;69.90;;;;;;5046425;28;20429;-71
2021/09/17 09:54:20;;;;;;;5.17;4.87;;;25.50;66.30;;;;;;5040769;28;20962;-71
2021/09/17 09:56:45;;;;;;;5.83;5.30;;;25.60;64.20;;;;;;5042866;28;20465;-72
2021/09/17 09:59:11;;;;;;;5.37;4.93;;;25.90;65.30;;;;;;5045128;28;20393;-71
2021/09/17 10:01:39;;;;;;;6.37;5.87;;;26.00;63.80;;;;;;5046735;28;20225;-72
2021/09/17 10:04:06;;;;;;;5.60;5.10;;;26.20;62.90;;;;;;5042315;28;20193;-71
2021/09/17 10:06:37;;;;;;;4.57;4.27;;;26.20;59.20;;;;;;5040827;28;20470;-71
2021/09/17 10:09:08;;;;;;;3.70;3.50;;;26.20;59.30;;;;;;5045865;28;20464;-71
2021/09/17 10:11:35;;;;;;;3.67;3.47;;;26.10;61.10;;;;;;5046876;28;21035;-71
2021/09/17 10:14:03;;;;;;;4.73;4.43;;;26.40;58.40;;;;;;5042866;28;20582;-71
2021/09/17 10:16:31;;;;;;;3.50;3.30;;;26.30;58.00;;;;;;5042219;28;20910;-71
2021/09/17 10:18:58;;;;;;;3.73;3.30;;;26.50;58.60;;;;;;5045266;28;20947;-70
2021/09/17 10:21:45;;;;;;;4.07;3.73;;;26.50;58.20;;;;;;5046657;28;20480;-71
2021/09/17 10:24:25;;;;;;;4.23;3.93;;;26.20;55.00;;;;;;5038388;28;20434;-71
2021/09/17 10:27:10;;;;;;;5.07;4.67;;;26.30;55.40;;;;;;5040516;28;20784;-71
2021/09/17 10:29:40;;;;;;;4.13;3.83;;;26.70;57.60;;;;;;5039899;28;20443;-71
2021/09/17 10:32:26;;;;;;;4.07;3.77;;;27.30;58.30;;;;;;5046221;28;20803;-71
2021/09/17 10:35:10;;;;;;;3.60;3.30;;;27.50;56.60;;;;;;5022972;28;20463;-71
2021/09/17 10:37:50;;;;;;;3.67;3.47;;;27.40;52.10;;;;;;5032128;28;20438;-71
2021/09/17 10:40:16;;;;;;;3.97;3.67;;;27.30;53.20;;;;;;5043103;28;21072;-71
2021/09/17 10:43:10;;;;;;;3.10;3.00;;;27.10;53.30;;;;;;5046485;28;20486;-71
2021/09/17 10:45:47;;;;;;;3.50;3.30;;;26.60;49.80;;;;;;5044914;28;20764;-71
2021/09/17 10:48:14;;;;;;;3.70;3.50;;;27.00;52.50;;;;;;5040786;28;20439;-71
2021/09/17 10:50:48;;;;;;;4.00;3.70;;;27.20;50.90;;;;;;5041658;28;20474;-71
2021/09/17 10:53:34;;;;;;;3.67;3.47;;;27.30;53.20;;;;;;5044074;28;20504;-71
2021/09/17 10:56:02;;;;;;;3.20;3.00;;;28.30;53.40;;;;;;5043355;28;20800;-71
2021/09/17 10:58:33;;;;;;;3.33;3.13;;;28.60;51.80;;;;;;5046401;28;20442;-71
2021/09/17 11:01:06;;;;;;;3.50;3.30;;;28.50;49.30;;;;;;5039564;28;20612;-70
2021/09/17 11:03:55;;;;;;;3.20;3.00;;;28.20;47.10;;;;;;5049623;28;20790;-71
2021/09/17 11:08:57;;;;;;;3.17;2.97;;;27.40;47.00;;;;;;5023450;28;20422;-72
2021/09/17 11:11:27;;;;;;;3.27;3.07;;;27.10;47.30;;;;;;5025061;28;20439;-72
2021/09/17 11:14:03;;;;;;;3.27;3.07;;;26.80;47.90;;;;;;5041318;28;20578;-71
2021/09/17 11:16:30;;;;;;;3.70;3.50;;;26.60;48.10;;;;;;5058073;28;20441;-72
2021/09/17 11:19:09;;;;;;;3.50;3.30;;;26.50;48.40;;;;;;5062527;28;20447;-72
2021/09/17 11:21:37;;;;;;;3.50;3.20;;;26.40;49.00;;;;;;5048994;28;20477;-71
2021/09/17 11:24:04;;;;;;;3.00;2.80;;;26.20;49.90;;;;;;5059451;28;20420;-71
2021/09/17 11:26:32;;;;;;;3.00;2.90;;;26.20;49.30;;;;;;5043527;28;20432;-71
2021/09/17 11:29:09;;;;;;;3.50;3.30;;;26.00;49.20;;;;;;5038633;28;20422;-71
2021/09/17 11:31:37;;;;;;;3.70;3.40;;;26.20;47.70;;;;;;5047126;28;20439;-70
2021/09/17 11:34:05;;;;;;;3.57;3.37;;;26.20;46.70;;;;;;5046849;28;20444;-72
2021/09/17 11:36:52;;;;;;;3.53;3.33;;;25.90;46.70;;;;;;5037948;28;20650;-72
2021/09/17 11:39:26;;;;;;;3.73;3.43;;;25.80;46.50;;;;;;5027302;28;20514;-72
2021/09/17 11:41:57;;;;;;;4.23;4.00;;;25.30;47.40;;;;;;5046915;28;20446;-72
2021/09/17 11:44:47;;;;;;;3.90;3.60;;;25.40;46.80;;;;;;5046830;28;20437;-72
2021/09/17 11:47:46;;;;;;;4.27;3.87;;;24.70;47.50;;;;;;5054279;28;20525;-72
2021/09/17 11:50:15;;;;;;;3.70;3.40;;;24.20;48.70;;;;;;5027711;28;20566;-72
2021/09/17 11:52:44;;;;;;;4.20;3.90;;;23.80;49.40;;;;;;5050436;28;20791;-72
2021/09/17 11:55:13;;;;;;;3.60;3.30;;;23.40;49.40;;;;;;5046859;28;20935;-72
2021/09/17 11:57:41;;;;;;;3.70;3.50;;;23.60;50.60;;;;;;5050728;28;20799;-72
2021/09/17 12:00:18;;;;;;;3.23;3.03;;;23.50;50.80;;;;;;5046000;28;20456;-72
2021/09/17 12:02:47;;;;;;;3.40;3.20;;;23.30;49.10;;;;;;5048971;28;21028;-72
2021/09/17 12:05:21;;;;;;;3.67;3.37;;;23.40;50.10;;;;;;5050123;28;20444;-71
2021/09/17 12:07:51;;;;;;;3.20;3.00;;;23.60;51.80;;;;;;5043630;28;20431;-72
2021/09/17 12:10:29;;;;;;;3.67;3.47;;;23.20;48.50;;;;;;5044595;28;20947;-72
2021/09/17 12:13:13;;;;;;;3.63;3.33;;;23.30;48.10;;;;;;5053481;28;20470;-72
2021/09/17 12:15:44;;;;;;;4.07;3.30;;;23.60;48.00;;;;;;5028868;28;20520;-72
2021/09/17 12:18:15;;;;;;;3.17;2.97;;;23.70;48.70;;;;;;5042551;28;20417;-72
2021/09/17 12:20:47;;;;;;;3.63;3.43;;;24.00;49.60;;;;;;5063983;28;20473;-72
2021/09/17 12:23:21;;;;;;;3.67;3.37;;;24.10;47.80;;;;;;5067931;28;20420;-72
2021/09/17 12:25:48;;;;;;;3.50;3.30;;;24.10;46.50;;;;;;5047283;28;20799;-73
2021/09/17 12:28:22;;;;;;;3.80;3.60;;;24.00;45.90;;;;;;5037172;28;20819;-73
2021/09/17 12:30:50;;;;;;;3.70;3.40;;;24.40;47.50;;;;;;5041582;28;20417;-73
2021/09/17 12:33:30;;;;;;;3.53;3.23;;;24.20;48.10;;;;;;5033213;28;20441;-73
2021/09/17 12:36:05;;;;;;;3.60;3.40;;;24.60;48.70;;;;;;5046447;28;20535;-70
2021/09/17 12:38:31;;;;;;;3.13;2.93;;;24.90;48.40;;;;;;5046985;28;21011;-73
2021/09/17 12:40:57;;;;;;;3.60;3.40;;;25.50;46.80;;;;;;5049087;28;20475;-77
2021/09/17 12:43:26;;;;;;;4.53;3.30;;;26.30;45.30;;;;;;5062027;28;20438;-73
2021/09/17 12:46:06;;;;;;;3.43;3.23;;;27.40;43.50;;;;;;5046995;28;20817;-73
2021/09/17 12:48:34;;;;;;;3.50;3.17;;;28.40;42.00;;;;;;5044523;28;20433;-71
2021/09/17 12:51:02;;;;;;;3.37;3.07;;;30.40;41.40;;;;;;5041569;28;20517;-71
2021/09/17 12:53:37;;;;;;;3.63;3.07;;;32.60;37.70;;;;;;5041551;28;20521;-70